Time;durP1;ratioP1;P1;durP2;ratioP2;P2;SDS_P1;SDS_P2;PMS_P1;PMS_P2;Temp;Humidity;BMP_temperature;BMP_pressure;BME280_temperature;BME280_humidity;BME280_pressure;Samples;Min_cycle;Max_cycle;Signal;HPM_P1;HPM_P2
2023/06/23 00:00:28;;;;;;;25.00;22.93;;;17.10;99.90;;;;;;5034752;28;20187;-83
2023/06/23 00:02:54;;;;;;;22.93;21.10;;;17.00;99.90;;;;;;5026263;28;20262;-83
2023/06/23 00:05:20;;;;;;;21.83;20.23;;;17.00;99.90;;;;;;5032189;28;20499;-83
2023/06/23 00:07:46;;;;;;;22.00;20.33;;;17.00;99.90;;;;;;5025719;28;20869;-83
2023/06/23 00:10:11;;;;;;;19.27;17.67;;;17.00;99.90;;;;;;5035487;28;20437;-82
2023/06/23 00:12:41;;;;;;;18.83;17.53;;;17.00;99.90;;;;;;5026622;28;20438;-82
2023/06/23 00:15:12;;;;;;;18.20;16.80;;;17.00;99.90;;;;;;5033060;28;20191;-83
2023/06/23 00:17:39;;;;;;;17.50;15.80;;;17.00;99.90;;;;;;5022743;28;20829;-83
2023/06/23 00:20:09;;;;;;;17.27;15.73;;;17.10;99.90;;;;;;5034472;28;20429;-82
2023/06/23 00:22:35;;;;;;;17.00;15.60;;;17.00;99.90;;;;;;5010377;28;20437;-82
2023/06/23 00:25:00;;;;;;;15.37;14.20;;;17.10;99.90;;;;;;5039820;28;20489;-83
2023/06/23 00:27:26;;;;;;;17.27;15.67;;;17.00;99.90;;;;;;5030020;28;20430;-84
2023/06/23 00:29:51;;;;;;;17.43;15.73;;;17.00;99.90;;;;;;5026090;28;20222;-83
2023/06/23 00:32:17;;;;;;;16.17;14.57;;;17.00;99.90;;;;;;5025748;28;20737;-83
2023/06/23 00:34:43;;;;;;;15.70;14.53;;;17.00;99.90;;;;;;5023173;28;20633;-83
2023/06/23 00:37:09;;;;;;;16.80;15.40;;;17.10;99.90;;;;;;5029431;28;20204;-83
2023/06/23 00:39:35;;;;;;;15.60;14.30;;;17.10;99.90;;;;;;5033298;28;20203;-83
2023/06/23 00:42:06;;;;;;;17.40;15.97;;;17.20;99.90;;;;;;5015234;28;20966;-83
2023/06/23 00:44:33;;;;;;;15.60;14.40;;;17.30;99.90;;;;;;5036472;28;20210;-83
2023/06/23 00:47:00;;;;;;;17.13;15.60;;;17.20;99.90;;;;;;5026536;28;21016;-83
2023/06/23 00:49:35;;;;;;;17.33;15.77;;;17.20;99.90;;;;;;5023743;28;20530;-82
2023/06/23 00:52:07;;;;;;;16.40;15.20;;;17.20;99.90;;;;;;5026142;28;20813;-82
2023/06/23 00:54:35;;;;;;;16.77;15.27;;;17.20;99.90;;;;;;5030669;28;20777;-83
2023/06/23 00:57:02;;;;;;;17.00;15.60;;;17.20;99.90;;;;;;5028972;28;20451;-82
2023/06/23 00:59:28;;;;;;;16.93;15.53;;;17.20;99.90;;;;;;5038748;28;20483;-82
2023/06/23 01:02:03;;;;;;;16.43;15.00;;;17.20;99.90;;;;;;5025396;28;20434;-83
2023/06/23 01:04:33;;;;;;;15.23;14.13;;;17.20;99.90;;;;;;5032272;28;20434;-83
2023/06/23 01:07:41;;;;;;;16.10;14.70;;;17.20;99.90;;;;;;5027126;28;20446;-83
2023/06/23 01:10:15;;;;;;;18.13;16.10;;;17.10;99.90;;;;;;5005235;28;20438;-84
2023/06/23 01:13:08;;;;;;;16.40;14.90;;;17.20;99.90;;;;;;5026175;28;20460;-83
2023/06/23 01:15:41;;;;;;;16.30;14.87;;;17.10;99.90;;;;;;5029127;28;20429;-83
2023/06/23 01:18:31;;;;;;;18.50;14.90;;;17.20;99.90;;;;;;5022969;28;20702;-84
2023/06/23 01:21:03;;;;;;;17.53;16.17;;;17.20;99.90;;;;;;5020116;28;21021;-84
2023/06/23 01:23:45;;;;;;;16.97;15.57;;;17.20;99.90;;;;;;5024635;28;20530;-83
2023/06/23 01:26:35;;;;;;;16.80;15.30;;;17.30;99.90;;;;;;5008445;28;20442;-83
2023/06/23 01:29:08;;;;;;;17.77;16.20;;;17.40;99.90;;;;;;5024282;28;20489;-83
2023/06/23 01:32:00;;;;;;;16.53;15.03;;;17.30;99.90;;;;;;5011001;28;20446;-83
2023/06/23 01:34:34;;;;;;;17.80;16.10;;;17.30;99.90;;;;;;5023619;28;20435;-83
2023/06/23 01:37:10;;;;;;;16.00;14.60;;;17.40;99.90;;;;;;5038500;28;20447;-82
2023/06/23 01:39:41;;;;;;;14.77;13.47;;;17.30;99.90;;;;;;5035099;28;20509;-82
2023/06/23 01:42:12;;;;;;;15.60;14.40;;;17.20;99.90;;;;;;5044725;28;20475;-84
2023/06/23 01:44:41;;;;;;;15.00;13.80;;;17.10;99.90;;;;;;5037961;28;21005;-84
2023/06/23 01:47:16;;;;;;;13.93;12.73;;;17.10;99.90;;;;;;5014516;28;20442;-83
2023/06/23 01:49:43;;;;;;;16.23;14.57;;;17.10;99.90;;;;;;5015647;28;20789;-83
2023/06/23 01:52:11;;;;;;;15.33;13.30;;;17.00;99.90;;;;;;5031712;28;20932;-82
2023/06/23 01:54:40;;;;;;;17.10;15.30;;;17.00;99.90;;;;;;5032190;28;20433;-83
2023/06/23 01:57:08;;;;;;;14.13;12.80;;;17.00;99.90;;;;;;5024928;28;20577;-83
2023/06/23 01:59:35;;;;;;;12.87;11.60;;;17.00;99.90;;;;;;5037939;28;20465;-83
2023/06/23 02:02:03;;;;;;;15.07;13.77;;;17.00;99.90;;;;;;5027246;28;20805;-83
2023/06/23 02:04:30;;;;;;;12.60;11.50;;;17.10;99.90;;;;;;5013407;28;20438;-84
2023/06/23 02:07:00;;;;;;;12.80;11.73;;;17.10;99.90;;;;;;5038154;28;20848;-82
2023/06/23 02:09:29;;;;;;;13.37;10.77;;;17.00;99.90;;;;;;5034841;28;20476;-84
2023/06/23 02:11:57;;;;;;;12.00;10.97;;;17.00;99.90;;;;;;5037201;28;20442;-83
2023/06/23 02:14:24;;;;;;;11.93;10.93;;;17.00;99.90;;;;;;5035669;28;20502;-83
2023/06/23 02:16:51;;;;;;;12.60;11.60;;;16.90;99.90;;;;;;5030615;28;20679;-83
2023/06/23 02:19:19;;;;;;;11.90;10.80;;;17.00;99.90;;;;;;5014965;28;20497;-83
2023/06/23 02:21:45;;;;;;;12.90;11.80;;;17.00;99.90;;;;;;5028354;28;20512;-83
2023/06/23 02:24:11;;;;;;;13.17;12.10;;;17.00;99.90;;;;;;5026562;28;20441;-83
2023/06/23 02:26:38;;;;;;;14.00;12.80;;;16.90;99.90;;;;;;5032459;28;20477;-83
2023/06/23 02:29:06;;;;;;;13.00;11.90;;;16.90;99.90;;;;;;5033873;28;20467;-83
2023/06/23 02:31:33;;;;;;;12.87;11.77;;;16.90;99.90;;;;;;5010793;28;20449;-84
2023/06/23 02:33:59;;;;;;;14.97;13.13;;;16.90;99.90;;;;;;5033105;28;20443;-82
2023/06/23 02:36:30;;;;;;;14.70;13.50;;;16.90;99.90;;;;;;5033427;28;20591;-84
2023/06/23 02:39:00;;;;;;;14.60;13.10;;;17.00;99.90;;;;;;5016056;28;20814;-83
2023/06/23 02:41:32;;;;;;;14.47;12.87;;;17.00;99.90;;;;;;5024244;28;20827;-82
2023/06/23 02:44:00;;;;;;;15.87;14.07;;;17.00;99.90;;;;;;5034258;28;20426;-83
2023/06/23 02:46:33;;;;;;;14.47;13.20;;;17.00;99.90;;;;;;5015303;28;20877;-82
2023/06/23 02:49:11;;;;;;;14.90;13.50;;;17.00;99.90;;;;;;5035764;28;20448;-82
2023/06/23 02:51:39;;;;;;;14.57;13.17;;;17.00;99.90;;;;;;5022387;28;20422;-83
2023/06/23 02:54:08;;;;;;;13.90;12.83;;;17.00;99.90;;;;;;5027692;28;20437;-83
2023/06/23 02:56:41;;;;;;;14.13;12.80;;;17.00;99.90;;;;;;5031708;28;20991;-83
2023/06/23 02:59:11;;;;;;;14.93;13.30;;;17.00;99.90;;;;;;5037717;28;20836;-84
2023/06/23 03:01:40;;;;;;;13.80;12.70;;;17.00;99.90;;;;;;5025436;28;20435;-83
2023/06/23 03:04:06;;;;;;;14.27;13.03;;;16.90;99.90;;;;;;5033935;28;20430;-83
2023/06/23 03:06:35;;;;;;;13.80;12.70;;;16.90;99.90;;;;;;5029680;28;20683;-83
2023/06/23 03:09:02;;;;;;;16.33;12.40;;;16.90;99.90;;;;;;5033947;28;20437;-84
2023/06/23 03:11:30;;;;;;;14.40;12.90;;;17.00;99.90;;;;;;5030842;28;20450;-85
2023/06/23 03:13:55;;;;;;;13.60;12.20;;;17.00;99.90;;;;;;5034798;28;20433;-85
2023/06/23 03:16:35;;;;;;;15.37;13.70;;;17.00;99.90;;;;;;5032995;28;20797;-84
2023/06/23 03:19:19;;;;;;;13.00;12.03;;;17.00;99.90;;;;;;5017643;28;20199;-82
2023/06/23 03:21:51;;;;;;;16.93;15.33;;;17.10;99.90;;;;;;5022333;28;20469;-84
2023/06/23 03:24:20;;;;;;;15.27;13.87;;;17.10;99.90;;;;;;5028142;28;20524;-83
2023/06/23 03:26:48;;;;;;;15.23;13.83;;;17.10;99.90;;;;;;5031938;28;20640;-83
2023/06/23 03:29:16;;;;;;;16.83;15.33;;;17.10;99.90;;;;;;5033729;28;20524;-84
2023/06/23 03:31:45;;;;;;;17.70;15.97;;;17.20;99.90;;;;;;5027732;28;20443;-84
2023/06/23 03:34:10;;;;;;;17.10;15.50;;;17.20;99.90;;;;;;5019176;28;20433;-84
2023/06/23 03:36:38;;;;;;;19.43;17.73;;;17.20;99.90;;;;;;5026672;28;20442;-83
2023/06/23 03:39:09;;;;;;;20.70;18.60;;;17.20;99.90;;;;;;5017664;28;20481;-84
2023/06/23 03:41:35;;;;;;;21.93;18.97;;;17.40;99.90;;;;;;5029147;28;20822;-82
2023/06/23 03:44:26;;;;;;;19.93;17.90;;;17.30;99.90;;;;;;5013306;28;20465;-87
2023/06/23 03:47:03;;;;;;;18.40;16.60;;;17.30;99.90;;;;;;5025593;28;20442;-87
2023/06/23 03:49:35;;;;;;;20.43;18.37;;;17.30;99.90;;;;;;5034475;28;20520;-83
2023/06/23 03:52:04;;;;;;;27.10;17.87;;;17.30;99.90;;;;;;5029593;28;20908;-83
2023/06/23 03:54:32;;;;;;;21.73;17.57;;;17.30;99.90;;;;;;5035419;28;20718;-83
2023/06/23 03:57:02;;;;;;;20.60;17.00;;;17.30;99.90;;;;;;5030108;28;20461;-85
2023/06/23 03:59:28;;;;;;;19.77;17.77;;;17.30;99.90;;;;;;5032756;28;21012;-85
2023/06/23 04:01:56;;;;;;;20.10;18.30;;;17.30;99.90;;;;;;5010054;28;20496;-86
2023/06/23 04:04:23;;;;;;;19.67;17.73;;;17.30;99.90;;;;;;5011688;28;20454;-86
2023/06/23 04:06:50;;;;;;;21.93;19.73;;;17.30;99.90;;;;;;5029644;28;20510;-88
2023/06/23 04:09:24;;;;;;;23.23;20.73;;;17.30;99.90;;;;;;5024123;28;20470;-86
2023/06/23 04:11:51;;;;;;;21.37;18.20;;;17.20;99.90;;;;;;5028154;28;20839;-87
2023/06/23 04:14:19;;;;;;;19.80;17.90;;;17.30;99.90;;;;;;5032391;28;20542;-86
2023/06/23 04:16:46;;;;;;;20.20;18.00;;;17.30;99.90;;;;;;5026658;28;20783;-86
2023/06/23 04:19:13;;;;;;;21.60;19.33;;;17.30;99.90;;;;;;5027955;28;20964;-82
2023/06/23 04:21:40;;;;;;;18.33;16.57;;;17.30;99.90;;;;;;5026665;28;20666;-85
2023/06/23 04:24:08;;;;;;;20.47;18.37;;;17.40;99.90;;;;;;5022981;28;21028;-83
2023/06/23 04:26:37;;;;;;;21.30;19.20;;;17.50;99.90;;;;;;5017775;28;20855;-83
2023/06/23 04:29:06;;;;;;;22.77;20.50;;;17.50;99.90;;;;;;5029908;28;20488;-87
2023/06/23 04:31:34;;;;;;;23.27;21.17;;;17.40;99.90;;;;;;5032620;28;20508;-84
2023/06/23 04:34:00;;;;;;;24.10;21.57;;;17.50;99.90;;;;;;5029265;28;20438;-84
2023/06/23 04:36:34;;;;;;;23.90;21.50;;;17.40;99.90;;;;;;5029305;28;20446;-83
2023/06/23 04:39:08;;;;;;;24.30;22.10;;;17.40;99.90;;;;;;5024183;28;20514;-85
2023/06/23 04:41:38;;;;;;;24.27;21.93;;;17.40;99.90;;;;;;5017085;28;20439;-85
2023/06/23 04:44:07;;;;;;;29.13;22.50;;;17.40;99.90;;;;;;5017229;28;20437;-84
2023/06/23 04:46:38;;;;;;;25.10;21.80;;;17.40;99.90;;;;;;5029224;28;20450;-85
2023/06/23 04:49:10;;;;;;;23.40;21.13;;;17.50;99.90;;;;;;5037346;28;20448;-84
2023/06/23 04:51:46;;;;;;;20.57;18.57;;;17.50;99.90;;;;;;5027457;28;20714;-84
2023/06/23 04:54:20;;;;;;;24.43;19.87;;;17.50;99.90;;;;;;5034368;28;20552;-83
2023/06/23 04:56:49;;;;;;;20.30;18.50;;;17.60;99.90;;;;;;5032291;28;20438;-83
2023/06/23 04:59:18;;;;;;;20.17;18.30;;;17.60;99.90;;;;;;5032604;28;21035;-83
2023/06/23 05:01:45;;;;;;;21.30;19.40;;;17.80;99.90;;;;;;5026877;28;21041;-83
2023/06/23 05:04:12;;;;;;;21.27;19.33;;;17.80;99.90;;;;;;5029373;28;20819;-83
2023/06/23 05:06:39;;;;;;;20.40;18.40;;;17.70;99.90;;;;;;5022343;28;20912;-82
2023/06/23 05:09:06;;;;;;;22.80;20.90;;;17.80;99.90;;;;;;5033430;28;20469;-84
2023/06/23 05:11:34;;;;;;;27.93;19.83;;;17.90;99.90;;;;;;5033261;28;20766;-83
2023/06/23 05:14:03;;;;;;;22.60;20.40;;;17.90;99.90;;;;;;5040969;28;20418;-83
2023/06/23 05:16:30;;;;;;;22.03;19.77;;;18.00;99.90;;;;;;5033211;28;20707;-82
2023/06/23 05:18:58;;;;;;;19.83;18.33;;;18.00;99.90;;;;;;5021452;28;20572;-81
2023/06/23 05:21:25;;;;;;;23.43;21.33;;;18.00;99.90;;;;;;5016305;28;20426;-84
2023/06/23 05:23:53;;;;;;;19.60;18.00;;;18.00;99.90;;;;;;5034175;28;20406;-84
2023/06/23 05:26:20;;;;;;;19.53;17.70;;;18.00;99.90;;;;;;5016537;28;20450;-81
2023/06/23 05:28:48;;;;;;;22.53;20.20;;;17.90;99.90;;;;;;5037854;28;21141;-83
2023/06/23 05:31:14;;;;;;;19.97;18.10;;;17.80;99.90;;;;;;5027260;28;20449;-82
2023/06/23 05:33:51;;;;;;;18.27;16.47;;;17.80;99.90;;;;;;5032998;28;20431;-84
2023/06/23 05:36:20;;;;;;;18.40;16.90;;;17.90;99.90;;;;;;5032968;28;20444;-84
2023/06/23 05:38:47;;;;;;;19.93;17.87;;;18.00;99.90;;;;;;5027763;28;20469;-83
2023/06/23 05:41:14;;;;;;;19.57;17.57;;;18.00;99.90;;;;;;5037980;28;20936;-83
2023/06/23 05:43:40;;;;;;;19.60;18.00;;;18.00;99.90;;;;;;5037337;28;20441;-83
2023/06/23 05:46:11;;;;;;;17.63;16.20;;;18.00;99.90;;;;;;5036176;28;20651;-85
2023/06/23 05:48:50;;;;;;;19.97;18.20;;;18.10;99.90;;;;;;5041687;28;20201;-82
2023/06/23 05:51:20;;;;;;;18.93;17.13;;;18.10;99.90;;;;;;5022620;28;20936;-84
2023/06/23 05:53:53;;;;;;;20.97;19.03;;;18.10;99.90;;;;;;5035153;28;20473;-84
2023/06/23 05:56:33;;;;;;;21.40;18.67;;;18.20;99.90;;;;;;5037413;28;20446;-84
2023/06/23 05:59:06;;;;;;;18.23;16.73;;;18.20;99.90;;;;;;5026837;28;21000;-86
2023/06/23 06:01:38;;;;;;;19.67;17.67;;;18.30;99.90;;;;;;5021295;28;20846;-86
2023/06/23 06:04:11;;;;;;;17.83;16.43;;;18.40;99.90;;;;;;5027303;28;20840;-86
2023/06/23 06:06:38;;;;;;;17.93;16.43;;;18.50;99.90;;;;;;5019214;28;20438;-85
2023/06/23 06:09:11;;;;;;;20.40;18.40;;;18.60;99.90;;;;;;5034618;28;20452;-86
2023/06/23 06:11:38;;;;;;;18.77;16.87;;;18.70;99.90;;;;;;5016742;28;20434;-87
2023/06/23 06:14:10;;;;;;;16.53;15.20;;;18.80;99.90;;;;;;5033862;28;20455;-85
2023/06/23 06:16:36;;;;;;;17.47;15.67;;;19.00;99.90;;;;;;5034534;28;20824;-85
2023/06/23 06:19:04;;;;;;;17.47;16.17;;;19.20;99.90;;;;;;5035715;28;20474;-85
2023/06/23 06:21:32;;;;;;;18.03;16.73;;;19.30;99.90;;;;;;5020268;28;20949;-85
2023/06/23 06:23:59;;;;;;;18.50;16.60;;;19.50;99.90;;;;;;5031480;28;21005;-84
2023/06/23 06:26:25;;;;;;;17.83;16.13;;;19.60;99.90;;;;;;5042992;28;20425;-82
2023/06/23 06:28:54;;;;;;;18.33;16.33;;;19.40;99.90;;;;;;5031618;28;20563;-84
2023/06/23 06:31:22;;;;;;;18.17;16.67;;;19.70;99.90;;;;;;5025680;28;20567;-84
2023/06/23 06:33:53;;;;;;;18.43;16.63;;;19.90;99.90;;;;;;5020556;28;20456;-83
2023/06/23 06:36:24;;;;;;;16.27;14.97;;;20.10;99.90;;;;;;5043672;28;20426;-84
2023/06/23 06:38:51;;;;;;;17.73;16.10;;;20.30;99.90;;;;;;5016073;28;20568;-85
2023/06/23 06:41:19;;;;;;;18.00;15.50;;;20.50;99.90;;;;;;5018508;28;20438;-85
2023/06/23 06:43:44;;;;;;;16.07;14.80;;;20.70;99.90;;;;;;5033011;28;20976;-86
2023/06/23 06:46:12;;;;;;;16.57;14.73;;;20.70;99.90;;;;;;5022520;28;20457;-85
2023/06/23 06:48:39;;;;;;;17.17;15.70;;;20.80;99.90;;;;;;5035971;28;20199;-86
2023/06/23 06:51:05;;;;;;;16.87;15.50;;;20.80;99.90;;;;;;5041330;28;20421;-87
2023/06/23 06:53:32;;;;;;;29.57;20.60;;;20.70;99.90;;;;;;5034114;28;20453;-85
2023/06/23 06:55:58;;;;;;;19.87;18.17;;;20.70;99.90;;;;;;5034163;28;20451;-86
2023/06/23 06:58:25;;;;;;;21.30;18.67;;;20.80;99.90;;;;;;5033611;28;20485;-86
2023/06/23 07:00:57;;;;;;;21.73;19.63;;;20.90;99.90;;;;;;5013685;28;20445;-85
2023/06/23 07:03:24;;;;;;;23.33;20.00;;;20.90;99.90;;;;;;5027647;28;20441;-83
2023/06/23 07:05:50;;;;;;;21.70;19.50;;;20.90;99.90;;;;;;5036406;28;20428;-82
2023/06/23 07:08:18;;;;;;;21.80;18.17;;;20.80;99.90;;;;;;5036948;28;20429;-83
2023/06/23 07:10:44;;;;;;;21.60;19.63;;;20.90;99.90;;;;;;5025784;28;20278;-84
2023/06/23 07:13:10;;;;;;;20.93;19.03;;;21.00;99.90;;;;;;5030189;28;21076;-83
2023/06/23 07:15:35;;;;;;;21.50;19.10;;;21.20;99.90;;;;;;5036231;28;20483;-84
2023/06/23 07:18:01;;;;;;;20.57;18.57;;;20.50;99.90;;;;;;5015737;28;20298;-83
2023/06/23 07:20:28;;;;;;;20.27;18.27;;;22.00;99.90;;;;;;5049950;28;20246;-84
2023/06/23 07:22:54;;;;;;;21.30;19.10;;;22.40;99.90;;;;;;5026298;28;20188;-87
2023/06/23 07:25:19;;;;;;;21.17;19.00;;;22.40;99.90;;;;;;5040582;28;20829;-86
2023/06/23 07:27:48;;;;;;;20.27;18.23;;;22.50;99.90;;;;;;5026834;28;20255;-86
2023/06/23 07:30:14;;;;;;;16.40;15.00;;;22.40;99.90;;;;;;5036019;28;20250;-86
2023/06/23 07:32:39;;;;;;;16.37;14.70;;;22.40;99.90;;;;;;5036235;28;20443;-85
2023/06/23 07:35:06;;;;;;;15.50;14.20;;;22.60;99.90;;;;;;5031144;28;20425;-85
2023/06/23 07:37:32;;;;;;;13.63;12.50;;;22.90;99.90;;;;;;5033066;28;20578;-85
2023/06/23 07:39:57;;;;;;;14.37;12.60;;;23.30;99.90;;;;;;5017920;28;20441;-85
2023/06/23 07:42:23;;;;;;;15.47;13.30;;;23.60;99.90;;;;;;5033520;28;20440;-87
2023/06/23 07:44:49;;;;;;;13.67;12.40;;;23.60;99.90;;;;;;5046790;28;20190;-89
2023/06/23 07:47:16;;;;;;;21.27;15.23;;;23.60;99.90;;;;;;5042831;28;20976;-88
2023/06/23 07:49:41;;;;;;;15.67;14.03;;;23.60;99.90;;;;;;5035444;28;20297;-85
2023/06/23 07:52:07;;;;;;;16.77;14.33;;;23.80;99.90;;;;;;5033137;28;20529;-84
2023/06/23 07:54:33;;;;;;;15.10;13.50;;;23.80;99.90;;;;;;5034698;28;20259;-84
2023/06/23 07:56:59;;;;;;;18.20;16.40;;;23.80;99.90;;;;;;5032524;28;20203;-84
2023/06/23 07:59:25;;;;;;;18.30;16.63;;;23.90;99.90;;;;;;5032016;28;20432;-85
2023/06/23 08:01:51;;;;;;;18.13;16.43;;;24.00;99.90;;;;;;5034945;28;20847;-84
2023/06/23 08:04:17;;;;;;;18.60;17.00;;;24.60;99.90;;;;;;5034173;28;20798;-85
2023/06/23 08:06:43;;;;;;;17.97;16.50;;;25.10;99.90;;;;;;5033655;28;20437;-85
2023/06/23 08:09:09;;;;;;;18.03;16.17;;;25.80;99.90;;;;;;5033977;28;20442;-85
2023/06/23 08:11:35;;;;;;;15.70;14.60;;;26.80;99.90;;;;;;5032930;28;20267;-85
2023/06/23 08:14:03;;;;;;;17.17;15.37;;;27.30;99.90;;;;;;5030539;28;20248;-86
2023/06/23 08:16:28;;;;;;;17.60;16.00;;;28.10;99.90;;;;;;5034692;28;20202;-84
2023/06/23 08:18:54;;;;;;;14.57;13.30;;;29.00;96.80;;;;;;5021123;28;21056;-84
2023/06/23 08:21:20;;;;;;;13.40;12.47;;;29.30;94.40;;;;;;5018160;28;20188;-86
2023/06/23 08:23:49;;;;;;;14.33;13.23;;;29.70;92.00;;;;;;5028371;28;20686;-86
2023/06/23 08:26:15;;;;;;;12.23;11.40;;;30.10;88.40;;;;;;5034990;28;20589;-85
2023/06/23 08:28:43;;;;;;;11.10;10.30;;;30.50;85.60;;;;;;5014377;28;20474;-85
2023/06/23 08:31:09;;;;;;;12.53;11.33;;;30.90;79.70;;;;;;5036200;28;20442;-82
2023/06/23 08:33:35;;;;;;;11.10;10.10;;;31.10;77.60;;;;;;5035384;28;20613;-85
2023/06/23 08:36:01;;;;;;;11.23;10.33;;;31.30;75.60;;;;;;5046642;28;20190;-85
2023/06/23 08:38:27;;;;;;;8.47;7.83;;;31.80;70.60;;;;;;5039019;28;20469;-87
2023/06/23 08:40:53;;;;;;;6.73;6.10;;;31.80;66.20;;;;;;5017082;28;20442;-86
2023/06/23 08:43:26;;;;;;;7.13;6.73;;;31.70;64.70;;;;;;5024007;28;20202;-86
2023/06/23 08:45:56;;;;;;;9.13;5.67;;;31.90;60.70;;;;;;5028486;28;20643;-86
2023/06/23 08:48:28;;;;;;;4.27;4.17;;;32.20;59.10;;;;;;5034515;28;20910;-86
2023/06/23 08:50:55;;;;;;;5.20;4.83;;;32.90;56.80;;;;;;5023204;28;20429;-83
2023/06/23 08:53:25;;;;;;;4.80;4.70;;;33.20;57.20;;;;;;5034514;28;20537;-83
2023/06/23 08:55:51;;;;;;;5.20;4.80;;;33.50;55.80;;;;;;5028345;28;20875;-84
2023/06/23 08:58:21;;;;;;;4.57;4.47;;;32.90;53.60;;;;;;5015345;28;20507;-81
2023/06/23 09:00:51;;;;;;;4.30;4.00;;;31.80;54.70;;;;;;5030320;28;20426;-83
2023/06/23 09:03:18;;;;;;;4.57;4.27;;;31.60;54.60;;;;;;5024147;28;20500;-83
2023/06/23 09:05:43;;;;;;;4.30;4.10;;;31.50;55.40;;;;;;5019190;28;20832;-83
2023/06/23 09:08:10;;;;;;;5.60;3.70;;;32.00;55.80;;;;;;5034035;28;20434;-87
2023/06/23 09:10:36;;;;;;;4.70;4.50;;;32.30;54.00;;;;;;5031756;28;20188;-83
2023/06/23 09:13:07;;;;;;;5.00;4.80;;;31.90;54.20;;;;;;5030487;28;20524;-82
2023/06/23 09:15:34;;;;;;;5.10;4.97;;;30.80;54.20;;;;;;5026645;28;20192;-83
2023/06/23 09:18:02;;;;;;;9.83;7.10;;;30.10;56.40;;;;;;5031488;28;20577;-83
2023/06/23 09:20:30;;;;;;;16.97;8.67;;;30.00;58.30;;;;;;5032623;28;20418;-83
2023/06/23 09:22:57;;;;;;;8.93;8.23;;;29.90;58.40;;;;;;5026506;28;20693;-83
2023/06/23 09:25:44;;;;;;;7.27;6.70;;;29.70;59.10;;;;;;5033317;28;20861;-82
2023/06/23 09:28:35;;;;;;;6.50;6.00;;;29.10;61.80;;;;;;5022772;28;20493;-84
2023/06/23 09:31:14;;;;;;;7.10;6.60;;;28.70;59.80;;;;;;5030857;28;20459;-82
2023/06/23 09:34:00;;;;;;;5.73;5.50;;;28.20;59.70;;;;;;5022598;28;20936;-84
2023/06/23 09:36:33;;;;;;;6.57;6.17;;;28.40;61.50;;;;;;5023000;28;20450;-83
2023/06/23 09:39:01;;;;;;;5.90;5.40;;;29.00;59.90;;;;;;5028951;28;20454;-83
2023/06/23 09:41:31;;;;;;;8.43;7.90;;;29.30;60.40;;;;;;5032990;28;20756;-86
2023/06/23 09:43:57;;;;;;;8.03;7.43;;;29.10;60.10;;;;;;5040852;28;20477;-88
2023/06/23 09:46:27;;;;;;;11.10;7.80;;;28.40;63.20;;;;;;5043405;28;20438;-86
2023/06/23 09:48:53;;;;;;;6.23;5.93;;;28.30;66.20;;;;;;5022033;28;20431;-88
2023/06/23 09:51:19;;;;;;;8.27;7.80;;;30.50;65.80;;;;;;5035954;28;20455;-88
2023/06/23 09:53:46;;;;;;;9.37;8.73;;;29.70;61.40;;;;;;5040102;28;20425;-85
2023/06/23 09:56:20;;;;;;;10.30;9.60;;;30.70;58.70;;;;;;5024749;28;20446;-88
2023/06/23 09:58:47;;;;;;;12.13;9.90;;;31.40;56.50;;;;;;5038710;28;20461;-85
2023/06/23 10:01:15;;;;;;;9.80;9.20;;;31.30;57.30;;;;;;5026815;28;20431;-87
2023/06/23 10:03:49;;;;;;;8.93;8.33;;;31.80;57.10;;;;;;5038511;28;20467;-87
2023/06/23 10:06:29;;;;;;;8.23;7.83;;;32.10;57.20;;;;;;5035122;28;20496;-89
2023/06/23 10:09:09;;;;;;;10.17;9.67;;;31.60;56.20;;;;;;5033154;28;20432;-87
2023/06/23 10:11:37;;;;;;;9.10;8.47;;;31.60;56.30;;;;;;5036099;28;20453;-87
2023/06/23 10:14:06;;;;;;;8.80;8.50;;;31.80;56.10;;;;;;5039371;28;20439;-88
2023/06/23 10:16:32;;;;;;;8.57;8.17;;;32.40;55.80;;;;;;5043446;28;20541;-88
2023/06/23 10:19:01;;;;;;;8.10;7.60;;;33.10;53.40;;;;;;5019292;28;20487;-86
2023/06/23 10:21:28;;;;;;;9.33;8.87;;;33.30;53.90;;;;;;5037744;28;20441;-87
2023/06/23 10:23:58;;;;;;;10.00;9.37;;;33.40;53.00;;;;;;5038306;28;20437;-87
2023/06/23 10:26:25;;;;;;;8.97;8.47;;;32.80;52.20;;;;;;5041281;28;20421;-88
2023/06/23 10:28:53;;;;;;;8.67;8.20;;;32.50;54.40;;;;;;5032759;28;20451;-83
2023/06/23 10:31:21;;;;;;;8.80;8.20;;;32.50;54.30;;;;;;5029373;28;20423;-86
2023/06/23 10:33:47;;;;;;;7.37;7.07;;;32.50;54.60;;;;;;5045453;28;20553;-85
2023/06/23 10:36:17;;;;;;;7.70;7.40;;;32.70;54.10;;;;;;5019082;28;20435;-85
2023/06/23 10:38:48;;;;;;;7.77;7.47;;;32.20;53.80;;;;;;5034675;28;20463;-90
2023/06/23 10:41:14;;;;;;;8.73;8.03;;;31.10;55.70;;;;;;5051189;28;20421;-89
2023/06/23 10:43:42;;;;;;;6.93;6.73;;;30.90;56.40;;;;;;5052524;28;20429;-86
2023/06/23 10:46:07;;;;;;;6.50;6.10;;;30.50;55.90;;;;;;5041372;28;20206;-89
2023/06/23 10:48:34;;;;;;;7.63;7.33;;;31.00;56.10;;;;;;5035247;28;20426;-86
2023/06/23 10:51:01;;;;;;;8.20;7.90;;;32.40;54.10;;;;;;5037997;28;20442;-81
2023/06/23 10:53:32;;;;;;;8.87;8.47;;;32.10;53.00;;;;;;5040886;28;20430;-86
2023/06/23 10:55:58;;;;;;;9.43;8.50;;;31.30;54.10;;;;;;5041284;28;20449;-85
2023/06/23 10:58:25;;;;;;;8.50;8.10;;;30.20;55.60;;;;;;5051021;28;20476;-87
2023/06/23 11:01:01;;;;;;;7.70;7.40;;;30.30;56.90;;;;;;5049782;28;20629;-88
2023/06/23 11:03:36;;;;;;;8.03;7.30;;;31.20;55.30;;;;;;5033172;28;20417;-86
2023/06/23 11:06:09;;;;;;;9.03;8.50;;;32.10;53.40;;;;;;5042563;28;20855;-83
2023/06/23 11:08:39;;;;;;;7.93;7.63;;;32.10;53.00;;;;;;5037919;28;20453;-85
2023/06/23 11:11:08;;;;;;;7.90;7.43;;;32.10;52.30;;;;;;5028878;28;20645;-86
2023/06/23 11:13:37;;;;;;;7.13;6.83;;;32.80;52.00;;;;;;5040403;28;20426;-83
2023/06/23 11:16:04;;;;;;;7.60;7.20;;;32.30;51.70;;;;;;5030193;28;20491;-85
2023/06/23 11:18:30;;;;;;;7.47;7.17;;;31.50;51.50;;;;;;5035537;28;20530;-90
2023/06/23 11:21:03;;;;;;;8.40;7.30;;;31.90;51.20;;;;;;5021360;28;20692;-88
2023/06/23 11:23:29;;;;;;;6.43;6.13;;;33.20;49.50;;;;;;5033949;28;20263;-89
2023/06/23 11:25:54;;;;;;;9.07;8.57;;;34.20;47.90;;;;;;5032463;28;20561;-87
2023/06/23 11:28:34;;;;;;;7.50;6.07;;;34.50;47.80;;;;;;5033816;28;20445;-86
2023/06/23 11:31:04;;;;;;;4.77;4.40;;;33.70;48.20;;;;;;5032792;28;20187;-84
2023/06/23 11:33:32;;;;;;;4.63;4.33;;;34.00;46.50;;;;;;5035511;28;20522;-89
2023/06/23 11:36:03;;;;;;;4.47;4.27;;;34.30;46.30;;;;;;5026608;28;20494;-83
2023/06/23 11:38:31;;;;;;;4.30;4.17;;;34.60;45.80;;;;;;5044429;28;20477;-89
2023/06/23 11:40:58;;;;;;;4.67;4.47;;;34.60;45.10;;;;;;5018634;28;20422;-89
2023/06/23 11:43:24;;;;;;;4.10;4.00;;;35.30;44.60;;;;;;5037403;28;20980;-87
2023/06/23 11:45:56;;;;;;;3.83;3.80;;;35.80;43.70;;;;;;5041387;28;20433;-86
2023/06/23 11:48:28;;;;;;;4.43;4.20;;;36.40;44.10;;;;;;5028874;28;20199;-86
2023/06/23 11:51:01;;;;;;;3.57;3.30;;;37.00;42.70;;;;;;5019767;28;20606;-87
2023/06/23 11:53:33;;;;;;;3.70;3.60;;;36.90;42.80;;;;;;5034550;28;20438;-86
2023/06/23 11:56:16;;;;;;;3.30;3.27;;;36.20;42.20;;;;;;5035319;28;20458;-87
2023/06/23 11:58:51;;;;;;;3.70;3.50;;;36.20;40.70;;;;;;5041384;28;20469;-85
2023/06/23 12:01:18;;;;;;;3.00;3.00;;;36.80;41.50;;;;;;5038070;28;20460;-85
2023/06/23 12:03:47;;;;;;;4.30;4.03;;;37.70;41.30;;;;;;5043222;28;20437;-87
2023/06/23 12:06:29;;;;;;;3.63;3.53;;;37.70;40.90;;;;;;5025499;28;20426;-86
2023/06/23 12:08:56;;;;;;;4.47;4.43;;;37.70;40.70;;;;;;5028780;28;20479;-85
2023/06/23 12:11:22;;;;;;;5.00;4.80;;;37.10;40.70;;;;;;5026628;28;20438;-86
2023/06/23 12:13:51;;;;;;;3.20;3.10;;;35.80;40.90;;;;;;5024908;28;20500;-86
2023/06/23 12:16:18;;;;;;;2.80;2.80;;;35.70;40.80;;;;;;5023426;28;20439;-86
2023/06/23 12:18:50;;;;;;;3.50;3.50;;;36.30;40.20;;;;;;5032735;28;20444;-85
2023/06/23 12:21:17;;;;;;;3.77;3.50;;;37.20;39.60;;;;;;5032868;28;20419;-84
2023/06/23 12:23:44;;;;;;;3.17;3.17;;;37.20;39.70;;;;;;5030348;28;20537;-85
2023/06/23 12:26:10;;;;;;;3.00;3.00;;;37.60;39.40;;;;;;5037233;28;20434;-85
2023/06/23 12:28:36;;;;;;;3.20;3.20;;;37.20;39.90;;;;;;5037595;28;20474;-83
2023/06/23 12:31:04;;;;;;;2.60;2.60;;;37.00;39.30;;;;;;5031860;28;20414;-85
2023/06/23 12:33:30;;;;;;;2.93;2.73;;;37.20;39.60;;;;;;5042936;28;20662;-85
2023/06/23 12:36:06;;;;;;;3.60;3.33;;;37.30;39.20;;;;;;5042541;28;20429;-87
2023/06/23 12:38:37;;;;;;;3.07;3.07;;;37.20;39.20;;;;;;5017777;28;20722;-83
2023/06/23 12:41:26;;;;;;;3.73;3.70;;;37.30;38.20;;;;;;5022229;28;20510;-84
2023/06/23 12:43:56;;;;;;;3.90;3.90;;;37.10;38.20;;;;;;5033787;28;20434;-84